Time;durP1;ratioP1;P1;durP2;ratioP2;P2;SDS_P1;SDS_P2;PMS_P1;PMS_P2;Temp;Humidity;BMP_temperature;BMP_pressure;BME280_temperature;BME280_humidity;BME280_pressure;Samples;Min_cycle;Max_cycle;Signal;HPM_P1;HPM_P2
2022/09/08 00:09:00;;;;;;;11.23;7.75;;;;;;;16.62;65.63;99838.13;30747797;28;96772;-62
2022/09/08 00:24:00;;;;;;;11.57;8.35;;;;;;;16.35;65.95;99824.88;30751865;28;96715;-62
2022/09/08 00:39:01;;;;;;;13.57;8.95;;;;;;;16.05;67.06;99822.78;30750098;28;97570;-62
2022/09/08 00:54:01;;;;;;;13.70;9.63;;;;;;;15.93;67.36;99819.13;30748173;28;110773;-61
2022/09/08 01:24:43;;;;;;;14.07;9.90;;;;;;;15.63;68.83;99814.28;30743894;28;97297;-62
2022/09/08 01:39:43;;;;;;;13.77;10.43;;;;;;;15.49;69.16;99800.06;30744363;28;96747;-63
2022/09/08 01:54:43;;;;;;;14.07;10.20;;;;;;;15.31;69.93;99812.31;30742790;28;97447;-62
2022/09/08 02:09:45;;;;;;;14.20;10.32;;;;;;;15.21;69.99;99796.66;30741535;28;96670;-62
2022/09/08 02:24:45;;;;;;;14.77;10.43;;;;;;;15.35;70.42;99791.22;30738753;28;97526;-62
2022/09/08 02:39:45;;;;;;;16.92;10.77;;;;;;;15.28;70.44;99756.38;30738403;28;96946;-62
2022/09/08 02:54:46;;;;;;;13.75;10.20;;;;;;;15.04;70.60;99776.66;30736786;28;96702;-62
2022/09/08 03:09:47;;;;;;;13.63;10.18;;;;;;;14.86;70.69;99766.59;30734613;28;97277;-62
2022/09/08 03:24:47;;;;;;;12.60;9.70;;;;;;;14.65;71.18;99752.41;30733221;28;97488;-62
2022/09/08 03:39:48;;;;;;;14.18;9.52;;;;;;;14.46;71.40;99745.97;30728228;28;112638;-62
2022/09/08 03:54:48;;;;;;;13.45;9.88;;;;;;;14.33;71.69;99752.16;30729779;28;96756;-62
2022/09/08 04:09:49;;;;;;;15.80;9.75;;;;;;;14.19;71.55;99729.88;30730084;28;96810;-62
2022/09/08 04:24:50;;;;;;;20.20;10.52;;;;;;;14.13;72.12;99733.38;30706215;28;97519;-63
2022/09/08 04:39:50;;;;;;;14.67;10.13;;;;;;;14.30;72.38;99735.69;30625044;28;97197;-60
2022/09/08 04:54:51;;;;;;;15.27;9.18;;;;;;;14.88;72.13;99733.19;30649956;28;101123;-64
2022/09/08 05:09:51;;;;;;;14.80;9.75;;;;;;;15.54;70.93;99735.81;30677407;28;100045;-62
2022/09/08 05:24:52;;;;;;;15.35;9.32;;;;;;;16.22;69.87;99729.03;30689862;28;113008;-61
2022/09/08 05:39:52;;;;;;;17.03;10.80;;;;;;;16.43;68.68;99719.78;30697718;28;97292;-61
2022/09/08 05:54:54;;;;;;;15.27;10.52;;;;;;;16.75;68.38;99700.84;30699110;28;118963;-61
2022/09/08 06:09:55;;;;;;;18.33;10.50;;;;;;;17.09;67.21;99709.41;30649705;28;96783;-62
2022/09/08 06:24:55;;;;;;;17.42;10.10;;;;;;;18.07;66.83;99696.69;30652766;28;97181;-64
2022/09/08 06:40:15;;;;;;;16.67;11.05;;;;;;;19.14;64.11;99679.66;30689526;28;113094;-63
2022/09/08 06:55:27;;;;;;;14.23;11.47;;;;;;;19.89;62.75;99675.94;30685042;28;96598;-61
2022/09/08 07:10:45;;;;;;;22.00;11.43;;;;;;;20.59;60.91;99670.25;30661452;28;97617;-62
2022/09/08 07:26:10;;;;;;;22.27;14.13;;;;;;;21.66;58.52;99655.56;30607993;28;96784;-63
2022/09/08 07:41:16;;;;;;;19.67;11.33;;;;;;;22.13;57.69;99646.75;30605665;28;96711;-61
2022/09/08 07:56:21;;;;;;;15.77;11.43;;;;;;;23.37;54.43;99647.38;30620417;28;96916;-62
2022/09/08 08:11:32;;;;;;;10.50;8.13;;;;;;;24.57;52.55;99652.56;30638029;28;96830;-63
2022/09/08 08:26:34;;;;;;;8.73;7.63;;;;;;;25.58;49.99;99648.84;30698024;28;97217;-63
2022/09/08 08:41:40;;;;;;;11.47;7.70;;;;;;;28.14;45.52;99629.66;30738857;28;97447;-64
2022/09/08 08:56:47;;;;;;;8.93;7.63;;;;;;;29.56;42.29;99609.75;30736987;28;97183;-62
2022/09/08 09:11:57;;;;;;;8.97;7.70;;;;;;;38.91;29.17;99603.00;30743627;28;96703;-65
2022/09/08 09:26:58;;;;;;;9.90;6.23;;;;;;;43.52;20.70;99592.97;30742540;28;96623;-65
2022/09/08 09:42:07;;;;;;;11.53;6.13;;;;;;;45.29;18.29;99591.31;30698471;28;97055;-62
2022/09/08 09:58:04;;;;;;;10.40;6.17;;;;;;;45.97;17.68;99577.47;30617832;28;97446;-65
2022/09/08 10:13:32;;;;;;;13.90;6.70;;;;;;;43.58;18.68;99557.69;30690553;28;98137;-64
2022/09/08 10:28:50;;;;;;;15.07;7.23;;;;;;;38.08;23.72;99533.00;30655023;28;97448;-63
2022/09/08 10:44:15;;;;;;;9.57;7.03;;;;;;;35.17;28.13;99544.72;30661400;28;98408;-63
2022/09/08 10:59:52;;;;;;;10.50;7.20;;;;;;;38.25;24.55;99534.47;30650146;28;97583;-63
2022/09/08 11:15:33;;;;;;;12.30;8.70;;;;;;;31.69;32.79;99534.69;30731511;28;96803;-62
2022/09/08 11:30:50;;;;;;;15.07;8.37;;;;;;;32.02;34.23;99506.53;30730045;28;96755;-64
2022/09/08 11:46:21;;;;;;;8.60;7.20;;;;;;;37.73;28.73;99499.84;30728711;28;96867;-63
2022/09/08 12:01:48;;;;;;;13.03;7.53;;;;;;;36.04;26.91;99461.91;30713867;28;96979;-61
2022/09/08 12:17:04;;;;;;;23.40;11.77;;;;;;;36.52;26.50;99408.31;30740190;28;97452;-61
2022/09/08 12:32:35;;;;;;;11.93;7.13;;;;;;;35.28;29.59;99372.56;30739515;28;96712;-63
2022/09/08 12:48:04;;;;;;;9.07;7.33;;;;;;;34.34;30.08;99345.16;30744853;28;96697;-63
2022/09/08 13:03:17;;;;;;;9.00;7.50;;;;;;;31.88;33.55;99323.06;30744079;28;96736;-64
2022/09/08 13:18:41;;;;;;;9.00;7.77;;;;;;;29.42;37.69;99343.72;30714639;28;98578;-64
2022/09/08 13:33:57;;;;;;;13.43;8.53;;;;;;;27.70;41.13;99339.78;30678580;28;97556;-63
2022/09/08 13:49:21;;;;;;;9.20;8.27;;;;;;;26.87;43.19;99285.06;30613662;28;97037;-62
2022/09/08 14:04:30;;;;;;;12.80;8.67;;;;;;;26.54;44.25;99276.06;30670311;28;97072;-63
2022/09/08 14:19:52;;;;;;;10.27;5.17;;;;;;;24.00;48.12;99573.72;30658438;28;96830;-75
2022/09/08 14:35:12;;;;;;;5.27;1.07;;;;;;;19.11;59.39;99514.41;30665670;28;96927;-74
2022/09/08 14:50:29;;;;;;;5.27;1.53;;;;;;;17.34;65.16;99577.38;30725440;28;97035;-71
2022/09/08 15:05:32;;;;;;;7.03;2.27;;;;;;;17.54;68.53;99501.69;30696548;28;97129;-71
2022/09/08 15:20:35;;;;;;;2.97;1.77;;;;;;;17.89;69.92;99406.56;30628646;28;96697;-70
2022/09/08 15:36:03;;;;;;;5.57;2.03;;;;;;;18.07;70.91;99450.59;30611807;28;96805;-75
2022/09/08 15:51:15;;;;;;;4.70;1.73;;;;;;;18.08;72.00;99485.44;30613602;28;97076;-74
2022/09/08 16:06:29;;;;;;;3.77;2.20;;;;;;;17.84;72.51;99522.31;30668683;28;96957;-77
2022/09/08 16:21:32;;;;;;;5.10;2.80;;;;;;;17.70;73.45;99537.88;30640154;28;98025;-75
2022/09/08 16:36:35;;;;;;;7.50;3.33;;;;;;;17.89;74.56;99549.38;30722519;28;96741;-81
2022/09/08 16:52:05;;;;;;;7.23;3.67;;;;;;;18.18;75.05;99576.47;30732829;28;96992;-72
2022/09/08 17:07:17;;;;;;;8.17;5.30;;;;;;;18.29;75.15;99573.97;30741218;28;97367;-61
2022/09/08 17:22:41;;;;;;;5.23;3.27;;;;;;;18.21;75.73;99569.78;30618809;28;97138;-64
2022/09/08 17:38:11;;;;;;;5.93;3.07;;;;;;;18.09;75.99;99596.72;30610795;28;97225;-62
2022/09/08 17:53:17;;;;;;;5.30;3.80;;;;;;;17.89;76.40;99615.91;30623863;28;97182;-65
2022/09/08 18:08:35;;;;;;;9.13;4.10;;;;;;;17.75;77.11;99632.28;30608492;28;97183;-64
2022/09/08 18:23:39;;;;;;;7.80;4.87;;;;;;;17.73;77.72;99649.75;30618120;28;97061;-64
2022/09/08 18:38:45;;;;;;;8.63;6.27;;;;;;;17.82;78.41;99664.50;30658616;28;97309;-64
2022/09/08 18:54:11;;;;;;;12.07;8.40;;;;;;;17.82;78.76;99669.06;30687980;28;97268;-65
2022/09/08 19:09:24;;;;;;;10.10;7.13;;;;;;;17.95;78.96;99678.84;30717797;28;97035;-65
2022/09/08 19:24:25;;;;;;;10.50;7.10;;;;;;;17.84;78.97;99667.78;30725143;28;97048;-64
2022/09/08 19:39:30;;;;;;;12.10;7.10;;;;;;;17.55;79.17;99666.75;30729556;28;96612;-64
2022/09/08 19:54:38;;;;;;;13.97;7.73;;;;;;;17.40;79.55;99677.94;30629892;28;96764;-64
2022/09/08 20:09:43;;;;;;;11.43;8.73;;;;;;;17.09;80.21;99677.91;30597619;28;97288;-64
2022/09/08 20:25:20;;;;;;;13.27;8.27;;;;;;;17.00;80.58;99683.84;30613480;28;97194;-64
2022/09/08 20:40:39;;;;;;;14.33;9.20;;;;;;;16.66;80.80;99705.69;30614932;28;97293;-63
2022/09/08 20:55:40;;;;;;;14.20;9.67;;;;;;;16.45;81.28;99706.91;30611128;28;96895;-63
2022/09/08 21:11:00;;;;;;;16.10;11.60;;;;;;;16.43;81.75;99717.09;30616317;28;96878;-64
2022/09/08 21:26:20;;;;;;;19.87;11.30;;;;;;;16.32;82.18;99748.19;30614881;28;97486;-64
2022/09/08 21:41:29;;;;;;;19.60;13.20;;;;;;;16.13;82.52;99759.88;30613463;28;96718;-64
2022/09/08 21:56:34;;;;;;;18.80;12.40;;;;;;;15.98;82.82;99762.88;30612800;28;97482;-64
2022/09/08 22:11:41;;;;;;;21.70;12.67;;;;;;;15.88;83.54;99756.13;30611815;28;97692;-63
2022/09/08 22:26:53;;;;;;;22.47;14.13;;;;;;;15.72;83.61;99770.03;30721415;28;97160;-62
2022/09/08 22:42:09;;;;;;;20.60;12.73;;;;;;;15.45;84.22;99764.78;30719371;28;97276;-63
2022/09/08 22:57:10;;;;;;;20.20;12.07;;;;;;;15.43;84.53;99766.84;30737868;28;96683;-63
2022/09/08 23:12:24;;;;;;;15.73;11.40;;;;;;;15.27;84.39;99759.25;30736825;28;97897;-63
2022/09/08 23:27:45;;;;;;;12.53;9.40;;;;;;;15.07;84.23;99768.19;30735529;28;96711;-62
2022/09/08 23:42:50;;;;;;;10.17;6.87;;;;;;;15.00;84.97;99768.22;30741650;28;96797;-63
2022/09/08 23:57:52;;;;;;;10.47;7.60;;;;;;;14.97;84.80;99767.81;30732295;28;97275;-63
